createdAt,value
2023-01-29T00:02:24.122Z,102014.72
2023-01-29T00:05:20.756Z,102004.56
2023-01-29T00:08:00.478Z,102003.16
2023-01-29T00:13:19.929Z,102018.47
2023-01-29T00:16:03.312Z,102027.06
2023-01-29T00:21:34.666Z,102025.56
2023-01-29T00:24:05.292Z,102029.41
2023-01-29T00:26:34.130Z,102022.81
2023-01-29T00:29:02.847Z,102027.06
2023-01-29T00:31:34.412Z,102027.06
2023-01-29T00:34:09.083Z,102021.69
2023-01-29T00:36:46.555Z,102027.47
2023-01-29T00:39:33.726Z,102037.44
2023-01-29T00:42:37.203Z,102035.38
2023-01-29T00:45:35.860Z,102034.16
2023-01-29T00:48:13.905Z,102034.09
2023-01-29T00:50:49.057Z,102040.34
2023-01-29T00:53:21.648Z,102039.28
2023-01-29T00:55:48.308Z,102036.94
2023-01-29T00:58:39.123Z,102036.00
2023-01-29T01:01:47.106Z,102046.06
2023-01-29T01:04:24.845Z,102042.50
2023-01-29T01:07:02.307Z,102038.13
2023-01-29T01:09:51.344Z,102043.19
2023-01-29T01:12:36.808Z,102050.03
2023-01-29T01:15:13.124Z,102037.59
2023-01-29T01:17:49.154Z,102044.06
2023-01-29T01:20:24.148Z,102053.00
2023-01-29T01:23:02.359Z,102057.28
2023-01-29T01:25:37.202Z,102045.34
2023-01-29T01:31:04.309Z,102057.91
2023-01-29T01:33:41.119Z,102063.63
2023-01-29T01:36:24.968Z,102057.00
2023-01-29T01:39:00.831Z,102057.13
2023-01-29T01:41:31.057Z,102064.06
2023-01-29T01:44:06.061Z,102061.53
2023-01-29T01:46:39.319Z,102064.16
2023-01-29T01:49:19.919Z,102061.28
2023-01-29T01:54:48.869Z,102061.44
2023-01-29T01:57:36.870Z,102059.03
2023-01-29T02:00:27.784Z,102057.25
2023-01-29T02:06:12.957Z,102065.59
2023-01-29T02:09:24.763Z,102059.75
2023-01-29T02:11:52.100Z,102066.38
2023-01-29T02:14:22.423Z,102068.50
2023-01-29T02:17:11.601Z,102066.81
2023-01-29T02:20:18.399Z,102064.53
2023-01-29T02:23:02.725Z,102078.44
2023-01-29T02:26:18.446Z,102080.66
2023-01-29T02:29:35.807Z,102073.69
2023-01-29T02:35:34.943Z,102078.13
2023-01-29T02:39:05.318Z,102072.59
2023-01-29T02:41:41.877Z,102075.03
2023-01-29T02:44:35.697Z,102073.03
2023-01-29T02:47:51.067Z,102076.06
2023-01-29T02:50:57.835Z,102073.81
2023-01-29T02:53:32.707Z,102075.13
2023-01-29T02:56:10.368Z,102071.06
2023-01-29T02:58:43.367Z,102071.59
2023-01-29T03:01:36.251Z,102068.97
2023-01-29T03:04:11.701Z,102076.38
2023-01-29T03:07:04.292Z,102075.41
2023-01-29T03:09:41.673Z,102079.28
2023-01-29T03:12:35.411Z,102074.28
2023-01-29T03:15:14.390Z,102078.56
2023-01-29T03:18:05.155Z,102083.81
2023-01-29T03:20:51.126Z,102090.16
2023-01-29T03:23:46.039Z,102088.53
2023-01-29T03:26:34.835Z,102081.16
2023-01-29T03:29:28.251Z,102099.25
2023-01-29T03:32:07.024Z,102094.09
2023-01-29T03:34:54.853Z,102094.00
2023-01-29T03:37:44.010Z,102103.34
2023-01-29T03:40:22.076Z,102100.75
2023-01-29T03:43:16.919Z,102105.34
2023-01-29T03:45:57.260Z,102097.34
2023-01-29T03:49:32.494Z,102098.16
2023-01-29T03:52:24.724Z,102101.66
2023-01-29T03:55:02.180Z,102097.03
2023-01-29T03:57:38.686Z,102104.47
2023-01-29T04:00:21.803Z,102092.22
2023-01-29T04:03:02.338Z,102094.47
2023-01-29T04:05:41.476Z,102102.34
2023-01-29T04:08:32.820Z,102093.53
2023-01-29T04:11:34.921Z,102100.38
2023-01-29T04:14:23.096Z,102101.59
2023-01-29T04:17:25.307Z,102103.75
2023-01-29T04:20:02.900Z,102101.78
2023-01-29T04:22:40.171Z,102109.28
2023-01-29T04:25:18.429Z,102111.00
2023-01-29T04:27:57.831Z,102101.22
2023-01-29T04:30:53.669Z,102101.31
2023-01-29T04:33:47.501Z,102097.97
2023-01-29T04:36:41.983Z,102104.66
2023-01-29T04:39:51.017Z,102108.25
2023-01-29T04:42:45.125Z,102112.91
2023-01-29T04:45:39.315Z,102112.91
2023-01-29T04:48:33.775Z,102110.13
2023-01-29T04:51:20.425Z,102123.63
2023-01-29T04:53:59.673Z,102118.75
2023-01-29T04:56:37.317Z,102114.88
2023-01-29T04:59:17.463Z,102123.06
2023-01-29T05:01:44.825Z,102122.19
2023-01-29T05:04:16.545Z,102131.81
2023-01-29T05:06:49.295Z,102128.19
2023-01-29T05:09:17.660Z,102133.16
2023-01-29T05:11:46.504Z,102132.00
2023-01-29T05:14:19.819Z,102137.19
2023-01-29T05:17:06.148Z,102135.31
2023-01-29T05:19:32.890Z,102133.28
2023-01-29T05:22:16.721Z,102135.19
2023-01-29T05:25:04.316Z,102137.38
2023-01-29T05:27:54.445Z,102134.78
2023-01-29T05:30:27.692Z,102131.16
2023-01-29T05:33:11.455Z,102134.78
2023-01-29T05:35:38.442Z,102141.03
2023-01-29T05:41:08.186Z,102134.22
2023-01-29T05:43:44.050Z,102140.84
2023-01-29T05:46:22.817Z,102152.63
2023-01-29T05:48:49.603Z,102154.63
2023-01-29T05:51:19.192Z,102151.44
2023-01-29T05:53:48.930Z,102156.88
2023-01-29T05:56:25.990Z,102154.16
2023-01-29T05:59:04.425Z,102161.94
2023-01-29T06:01:54.779Z,102163.28
2023-01-29T06:04:43.084Z,102164.94
2023-01-29T06:07:12.648Z,102173.47
2023-01-29T06:09:39.405Z,102178.59
2023-01-29T06:12:09.240Z,102170.56
2023-01-29T06:14:45.895Z,102177.41
2023-01-29T06:17:19.479Z,102181.53
2023-01-29T06:19:57.849Z,102183.91
2023-01-29T06:22:30.524Z,102186.19
2023-01-29T06:25:02.694Z,102187.19
2023-01-29T06:27:50.468Z,102188.19
2023-01-29T06:30:17.723Z,102187.84
2023-01-29T06:32:47.630Z,102191.09
2023-01-29T06:35:14.541Z,102191.50
2023-01-29T06:37:48.797Z,102195.88
2023-01-29T06:40:27.809Z,102200.91
2023-01-29T06:42:58.505Z,102202.56
2023-01-29T06:45:27.624Z,102203.75
2023-01-29T06:47:54.410Z,102209.16
2023-01-29T06:50:25.241Z,102205.84
2023-01-29T06:53:02.518Z,102202.06
2023-01-29T06:55:37.981Z,102213.25
2023-01-29T06:58:14.175Z,102204.78
2023-01-29T07:00:43.286Z,102210.06
2023-01-29T07:03:14.754Z,102208.06
2023-01-29T07:05:46.859Z,102212.50
2023-01-29T07:08:13.891Z,102217.66
2023-01-29T07:10:51.817Z,102218.53
2023-01-29T07:13:19.886Z,102225.22
2023-01-29T07:15:47.603Z,102235.88
2023-01-29T07:18:38.101Z,102230.69
2023-01-29T07:21:13.463Z,102231.22
2023-01-29T07:23:55.537Z,102224.81
2023-01-29T07:26:22.274Z,102239.75
2023-01-29T07:28:49.059Z,102241.06
2023-01-29T07:31:22.277Z,102242.94
2023-01-29T07:34:09.458Z,102243.69
2023-01-29T07:36:37.697Z,102251.78
2023-01-29T07:39:04.448Z,102239.63
2023-01-29T07:41:34.052Z,102241.50
2023-01-29T07:44:00.794Z,102247.09
2023-01-29T07:46:39.543Z,102246.16
2023-01-29T07:49:06.306Z,102256.69
2023-01-29T07:51:50.545Z,102261.91
2023-01-29T07:54:30.455Z,102261.31
2023-01-29T07:57:00.352Z,102261.25
2023-01-29T07:59:29.759Z,102259.38
2023-01-29T08:02:10.206Z,102257.22
2023-01-29T08:04:47.815Z,102270.13
2023-01-29T08:07:37.716Z,102274.09
2023-01-29T08:10:11.605Z,102277.31
2023-01-29T08:12:49.569Z,102271.84
2023-01-29T08:15:28.224Z,102279.06
2023-01-29T08:18:35.545Z,102285.66
2023-01-29T08:21:23.964Z,102284.75
2023-01-29T08:23:55.491Z,102290.53
2023-01-29T08:26:26.525Z,102285.31
2023-01-29T08:28:57.217Z,102291.00
2023-01-29T08:31:25.660Z,102295.03
2023-01-29T08:33:58.957Z,102296.13
2023-01-29T08:36:33.316Z,102297.72
2023-01-29T08:39:29.250Z,102300.94
2023-01-29T08:42:05.564Z,102314.41
2023-01-29T08:44:42.053Z,102310.84
2023-01-29T08:47:28.643Z,102312.81
2023-01-29T08:52:37.789Z,102320.22
2023-01-29T08:55:04.987Z,102323.69
2023-01-29T08:57:32.226Z,102329.28
2023-01-29T09:00:05.758Z,102328.75
2023-01-29T09:02:48.707Z,102331.94
2023-01-29T09:05:16.565Z,102332.03
2023-01-29T09:07:54.290Z,102334.34
2023-01-29T09:10:29.645Z,102334.09
2023-01-29T09:12:56.477Z,102339.84
2023-01-29T09:15:30.089Z,102328.91
2023-01-29T09:18:16.541Z,102336.44
2023-01-29T09:20:48.031Z,102331.16
2023-01-29T09:23:21.368Z,102332.06
2023-01-29T09:26:12.519Z,102328.66
2023-01-29T09:28:51.881Z,102329.31
2023-01-29T09:31:18.821Z,102324.31
2023-01-29T09:34:08.978Z,102327.00
2023-01-29T09:36:48.310Z,102335.63
2023-01-29T09:39:18.243Z,102337.28
2023-01-29T09:42:19.108Z,102338.13
2023-01-29T09:45:17.683Z,102331.94
2023-01-29T09:48:12.086Z,102326.03
2023-01-29T09:50:51.835Z,102317.47
2023-01-29T09:53:33.664Z,102323.16
2023-01-29T09:56:29.098Z,102312.03
2023-01-29T09:59:05.580Z,102324.63
2023-01-29T10:01:40.523Z,102313.25
2023-01-29T10:04:18.987Z,102312.50
2023-01-29T10:07:10.485Z,102316.81
2023-01-29T10:09:46.164Z,102309.28
2023-01-29T10:12:42.711Z,102303.38
2023-01-29T10:15:53.784Z,102305.69
2023-01-29T10:19:05.997Z,102291.06
2023-01-29T10:21:52.772Z,102299.75
2023-01-29T10:24:40.472Z,102294.06
2023-01-29T10:27:18.337Z,102290.94
2023-01-29T10:29:56.597Z,102291.84
2023-01-29T10:32:26.339Z,102288.44
2023-01-29T10:35:00.083Z,102292.91
2023-01-29T10:37:37.007Z,102297.56
2023-01-29T10:40:22.781Z,102284.41
2023-01-29T10:43:38.873Z,102284.81
2023-01-29T10:46:46.203Z,102290.94
2023-01-29T10:49:20.578Z,102279.66
2023-01-29T10:52:24.619Z,102272.00
2023-01-29T10:55:19.427Z,102266.59
2023-01-29T10:58:16.160Z,102263.97
2023-01-29T11:00:56.270Z,102254.91
2023-01-29T11:03:31.251Z,102255.38
2023-01-29T11:06:36.912Z,102250.00
2023-01-29T11:09:21.846Z,102251.22
2023-01-29T11:12:14.237Z,102242.38
2023-01-29T11:15:20.381Z,102242.66
2023-01-29T11:18:26.377Z,102227.44
2023-01-29T11:21:04.822Z,102243.13
2023-01-29T11:23:37.116Z,102225.69
2023-01-29T11:26:11.566Z,102228.50
2023-01-29T11:28:47.463Z,102221.94
2023-01-29T11:31:35.562Z,102232.63
2023-01-29T11:34:36.335Z,102210.00
2023-01-29T11:37:43.108Z,102197.72
2023-01-29T11:40:22.544Z,102198.03
2023-01-29T11:42:56.887Z,102206.28
2023-01-29T11:45:37.884Z,102204.53
2023-01-29T11:48:15.973Z,102190.75
2023-01-29T11:51:05.532Z,102191.22
2023-01-29T11:53:41.565Z,102175.84
2023-01-29T11:56:34.215Z,102189.28
2023-01-29T11:59:11.042Z,102182.09
2023-01-29T12:02:01.354Z,102174.44
2023-01-29T12:04:39.757Z,102175.75
2023-01-29T12:10:26.297Z,102160.97
2023-01-29T12:13:21.510Z,102156.41
2023-01-29T12:15:56.802Z,102148.78
2023-01-29T12:19:21.125Z,102142.41
2023-01-29T12:22:27.676Z,102137.94
2023-01-29T12:25:33.580Z,102132.78
2023-01-29T12:28:42.517Z,102131.63
2023-01-29T12:31:46.356Z,102128.13
2023-01-29T12:37:36.642Z,102116.41
2023-01-29T12:40:30.630Z,102119.28
2023-01-29T12:43:30.604Z,102119.25
2023-01-29T12:46:17.548Z,102111.44
2023-01-29T12:49:02.654Z,102106.22
2023-01-29T12:51:51.882Z,102103.63
2023-01-29T12:54:42.654Z,102102.97
2023-01-29T12:57:37.340Z,102098.63
2023-01-29T13:00:18.373Z,102092.59
2023-01-29T13:03:46.526Z,102084.72
2023-01-29T13:06:59.661Z,102081.25
2023-01-29T13:09:34.372Z,102079.44
2023-01-29T13:12:07.335Z,102080.34
2023-01-29T13:15:23.690Z,102078.16
2023-01-29T13:18:08.370Z,102073.59
2023-01-29T13:20:42.659Z,102072.94
2023-01-29T13:26:47.009Z,102078.41
2023-01-29T13:29:35.850Z,102072.66
2023-01-29T13:32:36.023Z,102075.38
2023-01-29T13:35:28.849Z,102074.66
2023-01-29T13:38:12.959Z,102074.06
2023-01-29T13:40:45.065Z,102079.38
2023-01-29T13:43:24.018Z,102082.81
2023-01-29T13:45:53.881Z,102081.91
2023-01-29T13:48:52.785Z,102077.81
2023-01-29T13:51:32.263Z,102081.19
2023-01-29T13:54:08.350Z,102078.56
2023-01-29T13:56:44.447Z,102079.69
2023-01-29T13:59:53.764Z,102084.84
2023-01-29T14:02:45.713Z,102088.00
2023-01-29T14:05:36.505Z,102099.25
2023-01-29T14:08:13.676Z,102096.44
2023-01-29T14:10:44.639Z,102086.06
2023-01-29T14:13:39.775Z,102083.38
2023-01-29T14:16:17.788Z,102085.97
2023-01-29T14:19:14.217Z,102088.44
2023-01-29T14:22:06.157Z,102085.97
2023-01-29T14:24:56.333Z,102094.03
2023-01-29T14:27:32.943Z,102101.16
2023-01-29T14:30:22.299Z,102094.44
2023-01-29T14:33:03.539Z,102079.63
2023-01-29T14:35:41.196Z,102074.97
2023-01-29T14:38:11.066Z,102074.88
2023-01-29T14:40:42.672Z,102080.16
2023-01-29T14:43:33.099Z,102069.25
2023-01-29T14:46:33.447Z,102068.31
2023-01-29T14:49:04.420Z,102067.13
2023-01-29T14:52:04.996Z,102054.22
2023-01-29T14:54:49.296Z,102062.88
2023-01-29T14:57:44.582Z,102065.59
2023-01-29T15:00:51.294Z,102066.34
2023-01-29T15:03:44.522Z,102059.88
2023-01-29T15:06:23.197Z,102067.06
2023-01-29T15:09:02.938Z,102053.56
2023-01-29T15:12:14.158Z,102046.41
2023-01-29T15:14:55.971Z,102054.41
2023-01-29T15:17:57.985Z,102057.03
2023-01-29T15:20:37.497Z,102060.22
2023-01-29T15:23:33.287Z,102049.59
2023-01-29T15:26:11.716Z,102047.06
2023-01-29T15:28:47.107Z,102045.41
2023-01-29T15:31:18.737Z,102047.22
2023-01-29T15:33:49.137Z,102038.47
2023-01-29T15:36:34.508Z,102045.50
2023-01-29T15:39:40.963Z,102045.31
2023-01-29T15:42:25.979Z,102034.75
2023-01-29T15:45:03.364Z,102034.78
2023-01-29T15:47:37.678Z,102028.09
2023-01-29T15:50:18.292Z,102030.44
2023-01-29T15:52:58.313Z,102028.69
2023-01-29T15:55:29.005Z,102035.81
2023-01-29T15:57:56.248Z,102034.13
2023-01-29T16:00:26.521Z,102032.97
2023-01-29T16:02:53.848Z,102020.69
2023-01-29T16:05:45.172Z,102024.03
2023-01-29T16:08:24.867Z,102028.28
2023-01-29T16:11:03.535Z,102033.91
2023-01-29T16:13:48.368Z,102033.75
2023-01-29T16:16:26.518Z,102037.19
2023-01-29T16:19:00.749Z,102033.25
2023-01-29T16:21:43.700Z,102038.34
2023-01-29T16:24:27.365Z,102033.91
2023-01-29T16:27:09.541Z,102028.50
2023-01-29T16:29:49.551Z,102024.94
2023-01-29T16:32:48.633Z,102028.25
2023-01-29T16:35:23.667Z,102027.50
2023-01-29T16:38:10.820Z,102029.94
2023-01-29T16:40:46.059Z,102039.09
2023-01-29T16:43:20.716Z,102046.81
2023-01-29T16:46:04.563Z,102046.81
2023-01-29T16:48:40.243Z,102053.47
2023-01-29T16:51:25.853Z,102054.31
2023-01-29T16:54:18.497Z,102057.94
2023-01-29T16:56:52.918Z,102061.19
2023-01-29T16:59:29.190Z,102066.47
2023-01-29T17:02:04.539Z,102066.53
2023-01-29T17:04:41.856Z,102063.81
2023-01-29T17:07:28.933Z,102062.03
2023-01-29T17:10:02.073Z,102061.91
2023-01-29T17:12:39.691Z,102071.47
2023-01-29T17:15:35.315Z,102072.97
2023-01-29T17:18:02.910Z,102072.72
2023-01-29T17:20:37.610Z,102074.66
2023-01-29T17:23:15.494Z,102073.78
2023-01-29T17:25:42.630Z,102077.44
2023-01-29T17:28:19.056Z,102080.47
2023-01-29T17:31:05.879Z,102074.31
2023-01-29T17:33:42.573Z,102076.91
2023-01-29T17:36:22.559Z,102086.44
2023-01-29T17:38:49.601Z,102080.78
2023-01-29T17:41:40.795Z,102085.25
2023-01-29T17:44:10.519Z,102083.06
2023-01-29T17:46:50.706Z,102084.81
2023-01-29T17:49:29.056Z,102077.19
2023-01-29T17:52:06.159Z,102078.81
2023-01-29T17:54:34.925Z,102079.06
2023-01-29T17:57:07.462Z,102081.53
2023-01-29T17:59:43.066Z,102069.38
2023-01-29T18:02:29.760Z,102073.78
2023-01-29T18:05:18.259Z,102074.63
2023-01-29T18:07:55.136Z,102066.63
2023-01-29T18:10:33.750Z,102079.53
2023-01-29T18:13:04.237Z,102073.63
2023-01-29T18:15:49.590Z,102075.31
2023-01-29T18:18:34.099Z,102079.53
2023-01-29T18:21:22.693Z,102066.38
2023-01-29T18:23:51.678Z,102078.50
2023-01-29T18:26:26.085Z,102070.84
2023-01-29T18:28:52.942Z,102073.38
2023-01-29T18:31:29.891Z,102063.41
2023-01-29T18:33:58.769Z,102064.34
2023-01-29T18:36:26.335Z,102059.94
2023-01-29T18:39:05.813Z,102052.66
2023-01-29T18:41:34.176Z,102050.88
2023-01-29T18:44:04.012Z,102051.34
2023-01-29T18:46:46.917Z,102057.13
2023-01-29T18:49:53.111Z,102045.69
2023-01-29T18:52:50.264Z,102044.97
2023-01-29T18:55:21.268Z,102043.16
2023-01-29T18:58:26.248Z,102058.78
2023-01-29T19:00:57.714Z,102051.91
2023-01-29T19:03:27.065Z,102049.75
2023-01-29T19:06:01.365Z,102045.34
2023-01-29T19:08:28.569Z,102052.59
2023-01-29T19:10:55.581Z,102052.13
2023-01-29T19:13:27.296Z,102051.53
2023-01-29T19:15:54.803Z,102060.16
2023-01-29T19:18:21.819Z,102055.91
2023-01-29T19:20:56.131Z,102050.47
2023-01-29T19:23:28.457Z,102054.59
2023-01-29T19:25:58.308Z,102064.06
2023-01-29T19:28:38.193Z,102057.19
2023-01-29T19:31:09.636Z,102064.06
2023-01-29T19:33:46.053Z,102058.00
2023-01-29T19:36:25.147Z,102057.69
2023-01-29T19:39:03.783Z,102061.47
2023-01-29T19:41:37.539Z,102058.13
2023-01-29T19:44:06.842Z,102056.34
2023-01-29T19:46:45.770Z,102061.06
2023-01-29T19:49:13.294Z,102057.03
2023-01-29T19:51:41.108Z,102064.16
2023-01-29T19:54:12.955Z,102061.28
2023-01-29T19:56:39.779Z,102074.19
2023-01-29T19:59:15.860Z,102071.19
2023-01-29T20:01:46.888Z,102068.41
2023-01-29T20:04:19.287Z,102065.03
2023-01-29T20:06:46.166Z,102070.16
2023-01-29T20:09:16.555Z,102078.03
2023-01-29T20:11:43.366Z,102081.34
2023-01-29T20:14:13.129Z,102072.91
2023-01-29T20:16:42.884Z,102078.50
2023-01-29T20:19:14.195Z,102078.34
2023-01-29T20:21:51.324Z,102085.38
2023-01-29T20:24:25.220Z,102086.47
2023-01-29T20:26:55.191Z,102080.94
2023-01-29T20:29:38.493Z,102084.66
2023-01-29T20:32:15.360Z,102077.47
2023-01-29T20:34:53.446Z,102084.69
2023-01-29T20:37:29.604Z,102086.22
2023-01-29T20:39:56.554Z,102080.00
2023-01-29T20:42:32.321Z,102083.53
2023-01-29T20:45:05.925Z,102077.50
2023-01-29T20:47:43.184Z,102081.28
2023-01-29T20:50:11.875Z,102074.44
2023-01-29T20:52:43.157Z,102077.06
2023-01-29T20:55:14.232Z,102070.13
2023-01-29T20:57:42.760Z,102069.41
2023-01-29T21:00:15.700Z,102066.66
2023-01-29T21:02:59.781Z,102065.88
2023-01-29T21:05:30.730Z,102060.78
2023-01-29T21:08:07.210Z,102057.31
2023-01-29T21:10:35.651Z,102068.09
2023-01-29T21:13:05.541Z,102071.53
2023-01-29T21:15:35.534Z,102066.25
2023-01-29T21:18:04.672Z,102059.38
2023-01-29T21:20:31.964Z,102068.38
2023-01-29T21:22:58.898Z,102072.59
2023-01-29T21:25:25.732Z,102063.88
2023-01-29T21:28:05.822Z,102060.44
2023-01-29T21:30:36.328Z,102067.38
2023-01-29T21:33:12.479Z,102062.34
2023-01-29T21:35:45.247Z,102062.19
2023-01-29T21:38:12.297Z,102061.38
2023-01-29T21:40:50.722Z,102060.00
2023-01-29T21:43:30.608Z,102063.59
2023-01-29T21:46:08.600Z,102061.94
2023-01-29T21:48:52.733Z,102061.91
2023-01-29T21:51:39.139Z,102065.81
2023-01-29T21:54:12.839Z,102064.22
2023-01-29T21:59:35.349Z,102058.09
2023-01-29T22:02:03.634Z,102054.81
2023-01-29T22:04:43.503Z,102052.75
2023-01-29T22:07:17.028Z,102054.81
2023-01-29T22:09:43.851Z,102060.25
2023-01-29T22:12:12.328Z,102060.38
2023-01-29T22:14:42.361Z,102050.22
2023-01-29T22:17:19.641Z,102057.84
2023-01-29T22:20:17.820Z,102055.59
2023-01-29T22:23:05.254Z,102050.94
2023-01-29T22:25:52.950Z,102059.34
2023-01-29T22:28:32.438Z,102055.94
2023-01-29T22:31:14.102Z,102044.84
2023-01-29T22:33:41.914Z,102055.88
2023-01-29T22:36:11.960Z,102048.41
2023-01-29T22:38:48.840Z,102053.25
2023-01-29T22:41:27.055Z,102053.88
2023-01-29T22:43:53.949Z,102048.59
2023-01-29T22:46:44.295Z,102050.47
2023-01-29T22:49:13.762Z,102051.84
2023-01-29T22:51:46.277Z,102048.69
2023-01-29T22:54:14.181Z,102053.50
2023-01-29T22:56:45.083Z,102051.56
2023-01-29T22:59:14.109Z,102053.31
2023-01-29T23:01:41.031Z,102051.75
2023-01-29T23:04:18.182Z,102055.06
2023-01-29T23:06:55.487Z,102047.97
2023-01-29T23:09:46.951Z,102047.66
2023-01-29T23:12:19.945Z,102047.94
2023-01-29T23:14:46.899Z,102047.84
2023-01-29T23:17:22.990Z,102039.22
2023-01-29T23:20:01.422Z,102046.50
2023-01-29T23:22:28.298Z,102044.75
2023-01-29T23:25:05.250Z,102043.88
2023-01-29T23:27:34.199Z,102044.66
2023-01-29T23:30:03.489Z,102038.31
2023-01-29T23:32:43.792Z,102038.44
2023-01-29T23:35:10.735Z,102039.81
2023-01-29T23:38:03.104Z,102032.91
2023-01-29T23:40:39.987Z,102035.13
2023-01-29T23:43:15.885Z,102040.31
2023-01-29T23:45:45.723Z,102039.97
2023-01-29T23:48:12.599Z,102033.81
2023-01-29T23:50:42.505Z,102034.50
2023-01-29T23:53:11.921Z,102039.19
2023-01-29T23:55:38.782Z,102036.34
2023-01-29T23:58:08.128Z,102033.53
